createdAt,value
2022-08-07T00:02:41.057Z,87.90
2022-08-07T00:06:20.524Z,89.40
2022-08-07T00:10:27.021Z,89.70
2022-08-07T00:14:11.458Z,89.50
2022-08-07T00:17:55.005Z,90.00
2022-08-07T00:21:57.480Z,89.80
2022-08-07T00:25:41.471Z,90.50
2022-08-07T00:29:28.729Z,90.30
2022-08-07T00:33:14.282Z,90.70
2022-08-07T00:36:56.973Z,90.70
2022-08-07T00:40:40.798Z,91.10
2022-08-07T00:44:22.854Z,90.70
2022-08-07T00:48:10.981Z,91.20
2022-08-07T00:51:58.399Z,91.60
2022-08-07T00:56:00.425Z,91.80
2022-08-07T00:59:42.805Z,91.30
2022-08-07T01:03:55.484Z,91.80
2022-08-07T01:07:29.545Z,92.00
2022-08-07T01:12:10.140Z,92.50
2022-08-07T01:15:17.652Z,92.60
2022-08-07T01:18:59.833Z,92.70
2022-08-07T01:22:54.091Z,92.90
2022-08-07T01:26:45.440Z,92.20
2022-08-07T01:30:30.927Z,93.10
2022-08-07T01:34:14.317Z,92.90
2022-08-07T01:37:56.902Z,92.90
2022-08-07T01:42:07.322Z,93.20
2022-08-07T01:45:46.587Z,93.30
2022-08-07T01:49:28.695Z,92.50
2022-08-07T01:53:20.638Z,93.20
2022-08-07T01:57:08.410Z,93.40
2022-08-07T02:00:58.017Z,93.90
2022-08-07T02:05:07.524Z,93.90
2022-08-07T02:08:54.160Z,94.00
2022-08-07T02:12:42.375Z,94.10
2022-08-07T02:16:33.678Z,94.00
2022-08-07T02:20:23.536Z,93.60
2022-08-07T02:24:06.766Z,94.20
2022-08-07T02:27:53.078Z,94.30
2022-08-07T02:31:36.897Z,94.70
2022-08-07T02:35:20.498Z,94.60
2022-08-07T02:39:43.047Z,94.70
2022-08-07T02:43:27.822Z,94.90
2022-08-07T02:47:19.535Z,94.70
2022-08-07T02:51:29.259Z,94.70
2022-08-07T02:55:28.645Z,94.80
2022-08-07T02:59:27.400Z,95.00
2022-08-07T03:03:13.477Z,94.90
2022-08-07T03:06:56.780Z,94.60
2022-08-07T03:10:40.959Z,95.10
2022-08-07T03:14:29.305Z,94.40
2022-08-07T03:18:17.635Z,94.90
2022-08-07T03:22:04.535Z,94.30
2022-08-07T03:25:58.307Z,94.70
2022-08-07T03:29:49.311Z,94.40
2022-08-07T03:33:40.098Z,95.80
2022-08-07T03:37:27.645Z,95.50
2022-08-07T03:41:10.991Z,95.60
2022-08-07T03:44:58.057Z,95.40
2022-08-07T03:48:45.444Z,94.80
2022-08-07T03:52:44.747Z,94.70
2022-08-07T03:56:33.338Z,95.00
2022-08-07T04:00:18.299Z,95.20
2022-08-07T04:04:04.869Z,95.40
2022-08-07T04:07:48.030Z,95.10
2022-08-07T04:12:26.679Z,95.30
2022-08-07T04:15:34.754Z,95.10
2022-08-07T04:19:17.490Z,94.50
2022-08-07T04:23:06.415Z,95.10
2022-08-07T04:26:48.706Z,95.20
2022-08-07T04:30:43.515Z,94.70
2022-08-07T04:34:39.514Z,95.30
2022-08-07T04:38:22.417Z,95.30
2022-08-07T04:42:04.868Z,95.60
2022-08-07T04:46:06.809Z,95.50
2022-08-07T04:50:32.315Z,95.30
2022-08-07T04:54:32.632Z,95.60
2022-08-07T05:03:03.041Z,95.30
2022-08-07T05:07:19.687Z,95.90
2022-08-07T05:15:23.160Z,95.70
2022-08-07T05:19:32.548Z,96.20
2022-08-07T05:24:10.806Z,95.90
2022-08-07T05:32:02.160Z,95.80
2022-08-07T05:40:13.850Z,95.90
2022-08-07T05:44:29.889Z,95.90
2022-08-07T05:48:58.354Z,94.80
2022-08-07T05:54:12.422Z,95.30
2022-08-07T05:57:58.878Z,95.10
2022-08-07T06:02:10.202Z,94.70
2022-08-07T06:05:56.646Z,94.10
2022-08-07T06:10:05.598Z,94.10
2022-08-07T06:14:13.592Z,93.20
2022-08-07T06:17:58.842Z,93.70
2022-08-07T06:22:14.256Z,92.80
2022-08-07T06:25:54.389Z,91.50
2022-08-07T06:29:39.196Z,90.10
2022-08-07T06:33:42.865Z,88.90
2022-08-07T06:37:24.894Z,86.80
2022-08-07T06:42:00.770Z,83.90
2022-08-07T06:49:52.186Z,76.30
2022-08-07T06:55:27.528Z,74.20
2022-08-07T06:58:29.490Z,73.40
2022-08-07T07:02:53.780Z,69.50
2022-08-07T07:06:31.595Z,67.50
2022-08-07T07:19:56.308Z,62.10
2022-08-07T07:24:08.908Z,54.80
2022-08-07T07:28:29.839Z,53.70
2022-08-07T07:32:18.567Z,52.70
2022-08-07T07:36:04.693Z,50.10
2022-08-07T07:40:15.217Z,45.60
2022-08-07T07:44:18.070Z,47.30
2022-08-07T07:48:34.796Z,42.40
2022-08-07T07:52:34.987Z,41.10
2022-08-07T07:56:18.326Z,44.10
2022-08-07T08:00:29.382Z,40.30
2022-08-07T08:04:55.045Z,42.80
2022-08-07T08:08:39.448Z,42.50
2022-08-07T08:12:58.928Z,36.20
2022-08-07T08:17:56.230Z,39.20
2022-08-07T08:22:09.759Z,39.50
2022-08-07T08:26:40.086Z,38.50
2022-08-07T08:34:31.910Z,34.80
2022-08-07T08:38:44.545Z,34.40
2022-08-07T08:43:15.956Z,33.70
2022-08-07T09:00:28.774Z,31.10
2022-08-07T09:04:57.367Z,30.50
2022-08-07T09:09:20.642Z,32.40
2022-08-07T09:13:39.815Z,31.10
2022-08-07T09:18:16.918Z,32.70
2022-08-07T09:24:32.613Z,31.30
2022-08-07T09:27:13.418Z,31.30
2022-08-07T09:39:53.707Z,30.30
2022-08-07T09:53:04.717Z,28.00
2022-08-07T09:57:36.541Z,29.50
2022-08-07T10:02:05.745Z,29.30
2022-08-07T10:28:36.932Z,28.40
2022-08-07T10:32:53.286Z,25.60
2022-08-07T10:37:26.438Z,27.20
2022-08-07T10:41:46.243Z,27.10
2022-08-07T10:46:01.887Z,27.10
2022-08-07T10:50:01.513Z,26.90
2022-08-07T10:54:32.073Z,25.30
2022-08-07T10:59:02.185Z,28.40
2022-08-07T11:16:41.112Z,28.60
2022-08-07T11:20:57.073Z,28.90
2022-08-07T11:30:18.736Z,31.90
2022-08-07T11:34:28.103Z,31.80
2022-08-07T11:38:56.462Z,32.90
2022-08-07T11:48:03.327Z,34.20
2022-08-07T11:56:28.787Z,35.80
2022-08-07T12:06:00.283Z,36.50
2022-08-07T12:10:28.157Z,36.00
2022-08-07T12:14:13.362Z,36.60
2022-08-07T12:18:33.225Z,37.00
2022-08-07T12:27:27.888Z,38.20
2022-08-07T12:32:04.025Z,37.10
2022-08-07T12:40:03.821Z,38.70
2022-08-07T12:48:52.910Z,38.90
2022-08-07T12:57:04.582Z,39.20
2022-08-07T13:01:32.421Z,40.30
2022-08-07T13:10:37.772Z,39.40
2022-08-07T13:14:50.931Z,40.30
2022-08-07T13:19:21.952Z,40.70
2022-08-07T13:32:45.028Z,39.30
2022-08-07T13:41:47.536Z,39.70
2022-08-07T13:46:23.921Z,39.90
2022-08-07T13:51:00.268Z,39.50
2022-08-07T13:54:49.177Z,37.50
2022-08-07T14:08:01.446Z,38.60
2022-08-07T14:12:28.194Z,38.20
2022-08-07T14:20:42.516Z,39.30
2022-08-07T14:24:52.817Z,39.10
2022-08-07T14:29:06.066Z,39.20
2022-08-07T14:55:17.671Z,42.20
2022-08-07T15:46:04.485Z,41.30
2022-08-07T15:58:02.225Z,40.70
2022-08-07T16:06:16.913Z,41.10
2022-08-07T16:19:41.824Z,41.10
2022-08-07T16:37:02.574Z,42.30
2022-08-07T17:00:00.893Z,43.70
2022-08-07T17:17:59.500Z,45.40
2022-08-07T17:22:37.483Z,44.40
2022-08-07T17:36:00.389Z,45.00
2022-08-07T17:45:02.223Z,45.20
2022-08-07T17:54:06.297Z,45.40
2022-08-07T18:30:31.156Z,48.60
2022-08-07T18:35:15.814Z,48.10
2022-08-07T18:43:57.332Z,48.60
2022-08-07T18:48:08.897Z,50.60
2022-08-07T19:16:03.272Z,51.20
2022-08-07T19:38:01.877Z,53.20
2022-08-07T19:46:12.168Z,53.60
2022-08-07T19:54:31.743Z,54.80
2022-08-07T19:58:14.205Z,55.10
2022-08-07T20:02:01.468Z,55.70
2022-08-07T20:06:00.895Z,56.60
2022-08-07T20:10:36.577Z,56.40
2022-08-07T20:13:54.637Z,58.50
2022-08-07T20:17:38.625Z,59.20
2022-08-07T20:21:22.619Z,60.20
2022-08-07T20:25:19.946Z,60.30
2022-08-07T20:29:10.107Z,61.50
2022-08-07T20:32:58.697Z,61.90
2022-08-07T20:36:44.064Z,62.50
2022-08-07T20:40:51.576Z,61.10
2022-08-07T20:44:40.748Z,60.90
2022-08-07T20:48:30.841Z,62.60
2022-08-07T20:52:21.175Z,63.30
2022-08-07T20:56:16.103Z,63.90
2022-08-07T21:00:09.220Z,63.80
2022-08-07T21:04:19.452Z,66.10
2022-08-07T21:08:01.135Z,64.70
2022-08-07T21:11:51.131Z,67.40
2022-08-07T21:15:48.217Z,67.30
2022-08-07T21:19:51.562Z,67.60
2022-08-07T21:24:15.327Z,67.90
2022-08-07T21:28:49.267Z,65.10
2022-08-07T21:32:50.139Z,65.70
2022-08-07T21:36:50.413Z,66.30
2022-08-07T21:40:46.080Z,69.30
2022-08-07T21:46:08.237Z,69.80
2022-08-07T21:49:26.924Z,69.70
2022-08-07T21:53:46.491Z,70.80
2022-08-07T21:58:01.729Z,72.60
2022-08-07T22:02:11.360Z,70.30
2022-08-07T22:06:30.681Z,73.80
2022-08-07T22:10:16.454Z,73.70
2022-08-07T22:14:04.976Z,75.70
2022-08-07T22:17:59.887Z,76.30
2022-08-07T22:22:04.546Z,76.70
2022-08-07T22:25:58.863Z,77.10
2022-08-07T22:29:50.359Z,77.80
2022-08-07T22:33:56.958Z,78.40
2022-08-07T22:38:04.976Z,78.80
2022-08-07T22:42:02.999Z,78.00
2022-08-07T22:46:47.051Z,81.00
2022-08-07T22:51:07.782Z,78.40
2022-08-07T22:55:17.098Z,76.50
2022-08-07T22:59:43.560Z,79.60
2022-08-07T23:03:58.548Z,78.60
2022-08-07T23:08:00.645Z,80.80
2022-08-07T23:11:59.389Z,80.90
2022-08-07T23:16:44.748Z,83.20
2022-08-07T23:20:51.762Z,82.90
2022-08-07T23:24:48.031Z,86.60
2022-08-07T23:29:01.978Z,83.50
2022-08-07T23:34:23.579Z,85.10
2022-08-07T23:37:20.166Z,88.00
2022-08-07T23:41:13.675Z,89.00
2022-08-07T23:45:33.437Z,88.50
2022-08-07T23:49:50.690Z,90.70
2022-08-07T23:53:58.826Z,89.70
2022-08-07T23:57:56.412Z,91.80
